Time;durP1;ratioP1;P1;durP2;ratioP2;P2;SDS_P1;SDS_P2;PMS_P1;PMS_P2;Temp;Humidity;BMP_temperature;BMP_pressure;BME280_temperature;BME280_humidity;BME280_pressure;Samples;Min_cycle;Max_cycle;Signal;HPM_P1;HPM_P2
2023/01/31 00:01:23;;;;;;;9.43;3.20;;;;;;;3.57;100.00;98994.03;5055129;28;20710;-71
2023/01/31 00:04:01;;;;;;;8.87;3.77;;;;;;;3.48;100.00;98989.69;5055558;28;20206;-71
2023/01/31 00:06:31;;;;;;;5.70;3.57;;;;;;;3.44;100.00;98990.97;5055480;28;20189;-71
2023/01/31 00:08:59;;;;;;;7.27;3.10;;;;;;;3.38;100.00;98988.09;5055143;28;20201;-71
2023/01/31 00:11:28;;;;;;;7.50;3.13;;;;;;;3.36;100.00;98984.81;5055398;28;20225;-71
2023/01/31 00:13:54;;;;;;;7.60;3.50;;;;;;;3.32;100.00;98975.59;5054966;28;20212;-71
2023/01/31 00:16:22;;;;;;;7.13;3.13;;;;;;;3.23;100.00;98966.81;5054984;28;20691;-71
2023/01/31 00:18:49;;;;;;;4.87;2.73;;;;;;;3.19;100.00;98964.63;5055299;28;20205;-71
2023/01/31 00:21:19;;;;;;;7.37;3.40;;;;;;;3.17;100.00;98966.59;5054998;28;20312;-71
2023/01/31 00:23:47;;;;;;;7.57;3.50;;;;;;;3.07;100.00;98971.91;5055148;28;20216;-71
2023/01/31 00:26:19;;;;;;;7.03;3.50;;;;;;;3.17;100.00;98977.91;5055126;28;20205;-71
2023/01/31 00:28:47;;;;;;;7.30;3.30;;;;;;;3.11;100.00;98980.34;5055084;28;20192;-71
2023/01/31 00:31:16;;;;;;;6.17;3.00;;;;;;;3.13;100.00;98976.59;5054939;28;20317;-71
2023/01/31 00:33:44;;;;;;;7.23;3.50;;;;;;;3.04;100.00;98969.59;5054076;28;20201;-71
2023/01/31 00:36:16;;;;;;;8.17;3.13;;;;;;;3.02;100.00;98981.22;5054867;28;20209;-71
2023/01/31 00:38:43;;;;;;;6.17;3.03;;;;;;;2.97;100.00;98970.31;5054888;28;20194;-71
2023/01/31 00:41:10;;;;;;;8.93;3.50;;;;;;;2.94;100.00;98957.50;5054336;28;20710;-71
2023/01/31 00:43:37;;;;;;;5.13;2.97;;;;;;;3.03;100.00;98967.13;5054424;28;20215;-71
2023/01/31 00:46:04;;;;;;;7.07;3.00;;;;;;;3.00;100.00;98957.72;5054428;28;20664;-71
2023/01/31 00:48:31;;;;;;;7.80;3.07;;;;;;;3.06;100.00;98957.13;5054379;28;20556;-71
2023/01/31 00:50:57;;;;;;;9.00;3.43;;;;;;;3.12;100.00;98956.50;5054631;28;20204;-71
2023/01/31 00:53:24;;;;;;;9.13;3.40;;;;;;;3.08;100.00;98964.84;5054296;28;20205;-71
2023/01/31 00:55:57;;;;;;;7.33;3.57;;;;;;;3.06;99.98;98958.91;5054547;28;20278;-70
2023/01/31 00:58:24;;;;;;;7.73;3.00;;;;;;;3.15;98.45;98961.47;5054213;28;20556;-71
2023/01/31 01:00:50;;;;;;;6.77;2.70;;;;;;;3.13;99.11;98952.94;5054058;28;20602;-71
2023/01/31 01:03:17;;;;;;;6.77;2.90;;;;;;;3.10;97.90;98966.34;5054309;28;20229;-71
2023/01/31 01:05:44;;;;;;;5.63;2.97;;;;;;;3.14;98.16;98959.00;5054374;28;20201;-71
2023/01/31 01:08:11;;;;;;;6.33;2.83;;;;;;;3.16;97.76;98962.31;5054304;28;20205;-71
2023/01/31 01:10:37;;;;;;;9.40;2.97;;;;;;;3.12;97.48;98956.50;5054994;28;20204;-71
2023/01/31 01:13:05;;;;;;;5.50;2.67;;;;;;;3.14;97.00;98959.84;5053703;28;20719;-71
2023/01/31 01:15:32;;;;;;;8.40;3.00;;;;;;;3.16;96.32;98965.75;5053886;28;20671;-71
2023/01/31 01:17:58;;;;;;;6.70;2.70;;;;;;;3.17;95.93;98966.59;5054135;28;20201;-71
2023/01/31 01:20:24;;;;;;;7.83;2.73;;;;;;;3.16;95.97;98967.56;5054003;28;20229;-71
2023/01/31 01:22:51;;;;;;;7.97;2.53;;;;;;;3.09;97.49;98963.88;5053971;28;20240;-71
2023/01/31 01:25:17;;;;;;;6.60;2.83;;;;;;;3.13;96.37;98971.31;5054449;28;20206;-71
2023/01/31 01:27:44;;;;;;;8.33;2.60;;;;;;;3.12;96.96;98974.09;5053939;28;20205;-71
2023/01/31 01:30:11;;;;;;;7.07;2.80;;;;;;;3.03;97.67;98972.38;5053911;28;20215;-71
2023/01/31 01:32:37;;;;;;;7.17;2.87;;;;;;;2.99;98.55;98974.44;5053485;28;20704;-71
2023/01/31 01:35:05;;;;;;;7.17;2.97;;;;;;;3.04;98.83;98972.22;5053832;28;20301;-71
2023/01/31 01:37:31;;;;;;;6.20;3.10;;;;;;;2.99;98.79;98984.16;5053819;28;20282;-71
2023/01/31 01:39:57;;;;;;;9.53;3.27;;;;;;;2.95;98.86;98980.16;5054323;28;20205;-71
2023/01/31 01:42:25;;;;;;;4.77;2.50;;;;;;;2.85;100.00;98979.41;5053574;28;20256;-71
2023/01/31 01:44:54;;;;;;;8.17;2.63;;;;;;;2.97;98.97;98988.69;5053541;28;20550;-71
2023/01/31 01:47:32;;;;;;;7.00;2.77;;;;;;;2.85;100.00;98982.03;5053648;28;20212;-71
2023/01/31 01:50:18;;;;;;;8.93;3.00;;;;;;;2.72;100.00;98986.81;5053655;28;20196;-71
2023/01/31 01:53:02;;;;;;;9.03;2.87;;;;;;;2.61;100.00;98985.19;5053061;28;20225;-71
2023/01/31 01:55:36;;;;;;;10.13;3.07;;;;;;;2.56;100.00;98982.19;5053468;28;20189;-71
2023/01/31 01:58:14;;;;;;;8.30;3.10;;;;;;;2.50;100.00;98995.06;5052423;28;20189;-71
2023/01/31 02:00:41;;;;;;;10.37;3.00;;;;;;;2.56;100.00;98984.81;5053459;28;20220;-70
2023/01/31 02:03:08;;;;;;;6.93;3.10;;;;;;;2.77;100.00;98997.69;5053412;28;20227;-71
2023/01/31 02:05:49;;;;;;;8.10;3.33;;;;;;;2.62;100.00;98986.84;5053156;28;20661;-71
2023/01/31 02:08:18;;;;;;;8.80;3.30;;;;;;;2.67;100.00;98984.59;5053319;28;20196;-71
2023/01/31 02:10:53;;;;;;;6.17;3.13;;;;;;;2.62;100.00;98988.66;5053427;28;20220;-71
2023/01/31 02:13:21;;;;;;;7.60;3.60;;;;;;;2.61;100.00;98985.19;5052957;28;20236;-71
2023/01/31 02:15:48;;;;;;;7.23;3.40;;;;;;;2.85;100.00;98987.28;5053254;28;20205;-71
2023/01/31 02:18:15;;;;;;;7.77;3.70;;;;;;;2.82;100.00;98995.44;5053333;28;20201;-71
2023/01/31 02:21:17;;;;;;;10.53;3.43;;;;;;;2.79;100.00;99003.59;5052104;28;20225;-71
2023/01/31 02:24:14;;;;;;;8.30;4.17;;;;;;;2.85;100.00;99003.84;5052692;28;20212;-71
2023/01/31 02:27:14;;;;;;;9.77;3.20;;;;;;;2.85;100.00;99006.47;5053322;28;20197;-71
2023/01/31 02:30:10;;;;;;;7.83;3.60;;;;;;;2.87;100.00;99020.28;5053020;28;20236;-71
2023/01/31 02:32:48;;;;;;;9.10;3.57;;;;;;;2.81;100.00;99010.38;5053203;28;20221;-71
2023/01/31 02:35:27;;;;;;;8.03;3.73;;;;;;;2.83;100.00;99018.94;5053476;28;20196;-71
2023/01/31 02:38:11;;;;;;;8.77;3.80;;;;;;;2.81;100.00;99017.44;5051963;28;20196;-71
2023/01/31 02:40:45;;;;;;;8.00;3.70;;;;;;;2.79;100.00;99011.47;5053121;28;20194;-71
2023/01/31 02:43:21;;;;;;;6.17;3.87;;;;;;;2.79;100.00;99021.97;5053067;28;20228;-71
2023/01/31 02:45:59;;;;;;;6.63;3.87;;;;;;;2.82;100.00;99026.94;5051711;28;20647;-71
2023/01/31 02:48:41;;;;;;;6.47;3.40;;;;;;;2.75;100.00;99026.72;5053151;28;20247;-72
2023/01/31 02:51:18;;;;;;;11.40;4.23;;;;;;;2.75;100.00;99029.34;5052972;28;20205;-71
2023/01/31 02:53:51;;;;;;;8.30;4.30;;;;;;;2.68;100.00;99024.81;5053033;28;20197;-71
2023/01/31 02:56:30;;;;;;;10.10;3.80;;;;;;;2.74;100.00;99022.44;5051741;28;20204;-71
2023/01/31 02:59:07;;;;;;;8.17;3.77;;;;;;;2.79;100.00;99032.50;5056430;28;20189;-71
2023/01/31 03:01:39;;;;;;;10.83;3.83;;;;;;;2.76;100.00;99020.47;5056595;28;20236;-71
2023/01/31 03:04:09;;;;;;;10.13;4.07;;;;;;;2.80;100.00;99031.53;5055190;28;20663;-71
2023/01/31 03:06:35;;;;;;;10.17;3.33;;;;;;;2.80;100.00;99021.84;5056596;28;20201;-71
2023/01/31 03:09:04;;;;;;;6.90;3.60;;;;;;;2.83;100.00;99018.09;5056264;28;20209;-71
2023/01/31 03:12:02;;;;;;;8.23;3.63;;;;;;;2.83;100.00;99023.34;5056451;28;20351;-71
2023/01/31 03:14:50;;;;;;;8.80;3.67;;;;;;;2.82;100.00;99017.28;5056479;28;20200;-71
2023/01/31 03:17:33;;;;;;;10.47;3.37;;;;;;;2.80;100.00;99023.66;5056143;28;20186;-71
2023/01/31 03:20:18;;;;;;;5.87;3.17;;;;;;;2.83;100.00;99023.34;5056360;28;20200;-71
2023/01/31 03:23:09;;;;;;;8.30;3.40;;;;;;;2.85;100.00;99019.59;5056247;28;20597;-71
2023/01/31 03:25:38;;;;;;;9.37;3.70;;;;;;;2.93;100.00;99016.25;5055998;28;20190;-71
2023/01/31 03:28:08;;;;;;;6.87;3.30;;;;;;;2.90;100.00;99022.63;5056232;28;20205;-71
2023/01/31 03:30:41;;;;;;;9.47;3.17;;;;;;;2.97;100.00;99025.47;5055891;28;20656;-71
2023/01/31 03:33:17;;;;;;;8.53;3.83;;;;;;;2.96;100.00;99029.06;5055680;28;20221;-71
2023/01/31 03:35:51;;;;;;;7.63;3.70;;;;;;;2.92;100.00;99032.97;5056120;28;20189;-71
2023/01/31 03:38:22;;;;;;;11.63;3.90;;;;;;;2.88;100.00;99039.50;5056078;28;20194;-71
2023/01/31 03:40:57;;;;;;;8.40;3.67;;;;;;;2.88;100.00;99039.50;5055884;28;20194;-71
2023/01/31 03:43:37;;;;;;;8.60;3.43;;;;;;;2.85;100.00;99037.19;5055877;28;20235;-71
2023/01/31 03:46:25;;;;;;;9.33;3.57;;;;;;;2.89;100.00;99039.34;5055910;28;20189;-71
2023/01/31 03:48:54;;;;;;;10.53;3.70;;;;;;;2.88;100.00;99036.84;5055732;28;20194;-71
2023/01/31 03:51:27;;;;;;;8.23;3.30;;;;;;;2.90;100.00;99035.78;5055727;28;20221;-71
2023/01/31 03:54:24;;;;;;;9.53;3.20;;;;;;;2.87;100.00;99038.69;5054013;28;20636;-71
2023/01/31 03:56:57;;;;;;;7.53;3.20;;;;;;;2.83;100.00;99037.31;5055031;28;20666;-71
2023/01/31 03:59:29;;;;;;;5.93;2.93;;;;;;;2.82;100.00;99043.53;5055314;28;20197;-71
2023/01/31 04:01:59;;;;;;;7.53;3.30;;;;;;;2.80;100.00;99044.66;5055649;28;20319;-71
2023/01/31 04:04:31;;;;;;;11.53;3.70;;;;;;;2.74;100.00;99053.94;5037453;28;20217;-71
2023/01/31 04:06:59;;;;;;;6.37;3.37;;;;;;;2.69;100.00;99044.84;5055007;28;20632;-71
2023/01/31 04:09:26;;;;;;;6.40;3.17;;;;;;;2.72;100.00;99055.91;5054921;28;20220;-70
2023/01/31 04:11:52;;;;;;;7.03;3.27;;;;;;;2.72;100.00;99058.53;5055119;28;20221;-71
2023/01/31 04:14:19;;;;;;;6.93;3.27;;;;;;;2.69;100.00;99068.47;5054993;28;20193;-71
2023/01/31 04:16:45;;;;;;;7.73;3.40;;;;;;;2.71;100.00;99072.59;5054794;28;20205;-71
2023/01/31 04:19:12;;;;;;;6.40;3.17;;;;;;;2.52;100.00;99067.44;5055118;28;20209;-71
2023/01/31 04:21:38;;;;;;;8.07;3.57;;;;;;;2.49;100.00;99070.34;5054766;28;20659;-71
2023/01/31 04:24:05;;;;;;;10.90;3.47;;;;;;;2.48;100.00;99068.69;5054929;28;20201;-71
2023/01/31 04:26:31;;;;;;;5.47;2.77;;;;;;;2.35;100.00;99062.13;5054939;28;20209;-71
2023/01/31 04:28:58;;;;;;;7.97;3.40;;;;;;;2.33;100.00;99061.44;5054783;28;20216;-71
2023/01/31 04:31:24;;;;;;;11.03;4.03;;;;;;;2.19;100.00;99059.25;5054499;28;20228;-71
2023/01/31 04:33:50;;;;;;;10.07;3.43;;;;;;;2.06;100.00;99054.31;5054475;28;20220;-71
2023/01/31 04:36:17;;;;;;;10.00;3.10;;;;;;;1.95;100.00;99058.91;5054350;28;20693;-71
2023/01/31 04:38:43;;;;;;;11.10;3.50;;;;;;;1.99;100.00;99055.84;5054182;28;20563;-71
2023/01/31 04:41:09;;;;;;;10.60;3.60;;;;;;;2.07;100.00;99065.66;5053736;28;20205;-71
2023/01/31 04:43:36;;;;;;;10.67;3.27;;;;;;;1.95;100.00;99072.03;5053796;28;20221;-71
2023/01/31 04:46:02;;;;;;;7.27;2.93;;;;;;;2.01;100.00;99064.41;5053505;28;20216;-71
2023/01/31 04:48:29;;;;;;;7.50;3.20;;;;;;;1.94;100.00;99065.94;5053785;28;20208;-71
2023/01/31 04:50:55;;;;;;;8.47;3.43;;;;;;;1.91;100.00;99078.50;5053453;28;20205;-71
2023/01/31 04:53:22;;;;;;;12.13;3.50;;;;;;;1.84;100.00;99072.16;5053484;28;20324;-72
2023/01/31 04:55:48;;;;;;;9.17;3.80;;;;;;;1.88;100.00;99065.66;5053782;28;20205;-71
2023/01/31 04:58:14;;;;;;;11.07;3.43;;;;;;;1.92;100.00;99064.41;5053759;28;20206;-71
2023/01/31 05:00:41;;;;;;;7.53;3.60;;;;;;;1.96;100.00;99061.41;5054329;28;20275;-71
2023/01/31 05:03:08;;;;;;;7.70;3.33;;;;;;;2.03;100.00;99056.41;5053602;28;20229;-71
2023/01/31 05:05:34;;;;;;;10.63;3.37;;;;;;;2.07;100.00;99055.16;5053784;28;20671;-71
2023/01/31 05:08:00;;;;;;;8.20;3.07;;;;;;;2.03;100.00;99057.22;5052407;28;20217;-71
2023/01/31 05:10:27;;;;;;;6.50;3.43;;;;;;;2.12;100.00;99068.69;5053446;28;20300;-71
2023/01/31 05:12:53;;;;;;;8.07;3.80;;;;;;;2.21;100.00;99070.47;5053220;28;20244;-71
2023/01/31 05:15:20;;;;;;;8.73;3.70;;;;;;;2.30;100.00;99064.34;5054004;28;20209;-71
2023/01/31 05:17:53;;;;;;;9.60;3.77;;;;;;;2.33;100.00;99064.03;5053689;28;20205;-71
2023/01/31 05:20:19;;;;;;;9.30;3.73;;;;;;;2.30;100.00;99069.59;5053086;28;20189;-71
2023/01/31 05:22:49;;;;;;;8.60;3.70;;;;;;;2.27;100.00;99069.88;5053232;28;20229;-71
2023/01/31 05:25:15;;;;;;;9.93;3.77;;;;;;;2.32;100.00;99065.88;5053450;28;20201;-71
2023/01/31 05:27:43;;;;;;;7.70;3.33;;;;;;;2.26;100.00;99071.66;5053564;28;20205;-71
2023/01/31 05:30:10;;;;;;;8.87;3.40;;;;;;;2.29;100.00;99066.13;5053820;28;20207;-71
2023/01/31 05:32:38;;;;;;;10.93;4.20;;;;;;;2.19;100.00;99069.75;5053411;28;20221;-71
2023/01/31 05:35:05;;;;;;;10.13;3.80;;;;;;;2.12;100.00;99077.34;5053671;28;20241;-71
2023/01/31 05:37:32;;;;;;;10.87;4.10;;;;;;;2.06;100.00;99082.34;5053242;28;20663;-71
2023/01/31 05:39:58;;;;;;;7.10;3.30;;;;;;;2.04;100.00;99073.81;5053301;28;20202;-71
2023/01/31 05:42:24;;;;;;;9.10;3.87;;;;;;;1.99;100.00;99078.63;5053041;28;20229;-71
2023/01/31 05:44:51;;;;;;;10.20;4.10;;;;;;;1.90;100.00;99082.09;5052867;28;20205;-71
2023/01/31 05:47:17;;;;;;;11.50;3.50;;;;;;;1.88;100.00;99074.38;5053281;28;20227;-71
2023/01/31 05:49:43;;;;;;;5.83;3.80;;;;;;;1.80;100.00;99074.22;5053071;28;20311;-71
2023/01/31 05:52:10;;;;;;;11.23;4.10;;;;;;;1.71;100.00;99066.41;5053021;28;20216;-71
2023/01/31 05:54:36;;;;;;;9.50;3.60;;;;;;;1.70;100.00;99072.56;5052717;28;20301;-71
2023/01/31 05:57:03;;;;;;;9.73;4.97;;;;;;;1.49;100.00;99066.66;5053445;28;20549;-71
2023/01/31 05:59:32;;;;;;;10.20;3.80;;;;;;;1.40;100.00;99062.25;5053492;28;20212;-71
2023/01/31 06:01:58;;;;;;;7.17;3.87;;;;;;;1.39;100.00;99060.59;5052885;28;20229;-71
2023/01/31 06:04:25;;;;;;;6.93;3.97;;;;;;;1.32;100.00;99059.47;5052291;28;20667;-71
2023/01/31 06:06:51;;;;;;;8.57;3.97;;;;;;;1.40;100.00;99064.88;5052679;28;20699;-71
2023/01/31 06:09:17;;;;;;;11.13;4.00;;;;;;;1.36;100.00;99064.31;5052754;28;20201;-71
2023/01/31 06:11:44;;;;;;;10.23;4.23;;;;;;;1.26;100.00;99070.53;5052758;28;20221;-71
2023/01/31 06:14:10;;;;;;;8.83;4.03;;;;;;;1.30;100.00;99072.72;5052430;28;20194;-71
2023/01/31 06:16:36;;;;;;;16.43;4.07;;;;;;;1.22;100.00;99072.56;5052938;28;20205;-71
2023/01/31 06:19:03;;;;;;;11.07;4.17;;;;;;;1.25;100.00;99060.97;5052846;28;20212;-71
2023/01/31 06:21:35;;;;;;;12.27;4.00;;;;;;;1.31;100.00;99065.69;5052618;28;20231;-72
2023/01/31 06:24:01;;;;;;;10.97;4.27;;;;;;;1.23;100.00;99073.41;5052302;28;20205;-72
2023/01/31 06:26:28;;;;;;;9.50;4.17;;;;;;;1.27;100.00;99069.53;5052230;28;20201;-72
2023/01/31 06:28:54;;;;;;;9.00;3.87;;;;;;;1.27;100.00;99073.00;5052630;28;20216;-73
2023/01/31 06:31:21;;;;;;;7.53;3.90;;;;;;;1.31;100.00;99070.94;5052886;28;20225;-72
2023/01/31 06:33:47;;;;;;;7.47;3.87;;;;;;;1.48;100.00;99065.03;5056461;28;20203;-72
2023/01/31 06:36:14;;;;;;;9.00;3.83;;;;;;;1.46;100.00;99077.41;5056143;28;20209;-72
2023/01/31 06:38:41;;;;;;;14.20;4.23;;;;;;;1.52;100.00;99076.84;5056307;28;20205;-72
2023/01/31 06:41:07;;;;;;;6.70;4.07;;;;;;;1.47;100.00;99079.91;5056302;28;20212;-72
2023/01/31 06:43:33;;;;;;;11.40;5.03;;;;;;;1.43;100.00;99082.91;5056143;28;20228;-72
2023/01/31 06:46:00;;;;;;;10.03;4.07;;;;;;;1.34;100.00;99083.75;5056217;28;20287;-72
2023/01/31 06:48:26;;;;;;;8.87;4.10;;;;;;;1.27;100.00;99099.19;5056637;28;20212;-73
2023/01/31 06:50:53;;;;;;;9.17;4.33;;;;;;;1.35;100.00;99096.69;5056526;28;20209;-72
2023/01/31 06:53:20;;;;;;;10.10;4.57;;;;;;;1.46;100.00;99086.13;5055916;28;20339;-72
2023/01/31 06:55:46;;;;;;;10.03;4.20;;;;;;;1.39;100.00;99081.56;5056205;28;20223;-72
2023/01/31 06:58:12;;;;;;;9.77;4.10;;;;;;;1.46;100.00;99087.91;5056134;28;20292;-72
2023/01/31 07:00:39;;;;;;;14.83;4.80;;;;;;;1.49;100.00;99077.97;5056112;28;20206;-72
2023/01/31 07:03:05;;;;;;;7.77;4.33;;;;;;;1.55;100.00;99074.81;5056024;28;20244;-72
2023/01/31 07:05:31;;;;;;;11.33;4.20;;;;;;;1.63;100.00;99074.94;5056270;28;20205;-72
2023/01/31 07:07:58;;;;;;;6.73;4.03;;;;;;;1.57;100.00;99074.69;5056048;28;20212;-72
2023/01/31 07:10:24;;;;;;;6.77;4.00;;;;;;;1.62;100.00;99069.84;5055839;28;20213;-72
2023/01/31 07:12:51;;;;;;;10.03;3.87;;;;;;;1.66;100.00;99074.66;5055556;28;20611;-72
2023/01/31 07:15:17;;;;;;;7.23;4.13;;;;;;;1.60;100.00;99072.59;5055272;28;20215;-72
2023/01/31 07:17:44;;;;;;;7.47;4.07;;;;;;;1.61;100.00;99078.66;5055107;28;20683;-72
2023/01/31 07:20:11;;;;;;;11.63;3.73;;;;;;;1.64;100.00;99070.53;5055287;28;20209;-72
2023/01/31 07:22:37;;;;;;;9.30;4.07;;;;;;;1.65;100.00;99072.16;5055101;28;20233;-72
2023/01/31 07:25:04;;;;;;;9.37;4.20;;;;;;;1.65;100.00;99077.41;5055346;28;20213;-72
2023/01/31 07:27:30;;;;;;;9.30;4.20;;;;;;;1.70;100.00;99076.03;5055594;28;20201;-71
2023/01/31 07:29:56;;;;;;;12.53;3.50;;;;;;;1.73;100.00;99082.78;5055439;28;20212;-72
2023/01/31 07:32:23;;;;;;;7.37;3.93;;;;;;;1.69;100.00;99086.66;5055232;28;20218;-72
2023/01/31 07:34:49;;;;;;;10.00;4.00;;;;;;;1.67;100.00;99085.97;5055338;28;20209;-72
2023/01/31 07:37:15;;;;;;;8.30;4.10;;;;;;;1.72;100.00;99089.00;5055223;28;20209;-72
2023/01/31 07:39:42;;;;;;;5.93;3.43;;;;;;;1.63;100.00;99095.09;5055073;28;20220;-73
2023/01/31 07:42:08;;;;;;;8.60;4.10;;;;;;;1.64;100.00;99081.84;5054546;28;20688;-72
2023/01/31 07:44:34;;;;;;;9.53;3.90;;;;;;;1.71;100.00;99098.66;5053372;28;20209;-72
2023/01/31 07:47:01;;;;;;;11.40;4.53;;;;;;;1.74;100.00;99097.56;5053214;28;20208;-72
2023/01/31 07:49:27;;;;;;;10.23;4.10;;;;;;;1.63;100.00;99090.66;5053092;28;20303;-73
2023/01/31 07:51:53;;;;;;;6.17;3.77;;;;;;;1.76;100.00;99095.63;5053215;28;20225;-72
2023/01/31 07:54:20;;;;;;;10.10;3.97;;;;;;;1.80;100.00;99097.81;5053360;28;20201;-72
2023/01/31 07:56:46;;;;;;;8.97;3.90;;;;;;;1.93;100.00;99095.75;5053300;28;20205;-72
2023/01/31 07:59:13;;;;;;;7.43;3.97;;;;;;;1.97;100.00;99096.28;5052654;28;20241;-72
2023/01/31 08:04:23;;;;;;;10.23;3.27;;;;;;;2.15;100.00;99110.34;5055231;28;20204;-72
2023/01/31 08:06:53;;;;;;;9.23;3.67;;;;;;;2.23;100.00;99105.22;5055372;28;20568;-72
2023/01/31 08:09:19;;;;;;;14.73;3.67;;;;;;;2.36;100.00;99111.00;5055442;28;20209;-72
2023/01/31 08:11:46;;;;;;;7.23;3.70;;;;;;;2.39;100.00;99110.72;5054634;28;20229;-72
2023/01/31 08:14:12;;;;;;;8.70;3.43;;;;;;;2.47;100.00;99111.66;5054994;28;20193;-72
2023/01/31 08:16:39;;;;;;;7.27;3.23;;;;;;;2.59;100.00;99107.91;5054600;28;20209;-72
2023/01/31 08:19:05;;;;;;;5.77;2.47;;;;;;;2.71;100.00;99112.00;5054231;28;20216;-70
2023/01/31 08:21:32;;;;;;;7.90;3.90;;;;;;;2.76;100.00;99107.13;5054789;28;20248;-73
2023/01/31 08:23:58;;;;;;;8.37;3.80;;;;;;;2.83;100.00;99102.13;5054805;28;20240;-71
2023/01/31 08:26:24;;;;;;;9.43;3.43;;;;;;;2.96;100.00;99103.47;5054678;28;20212;-71
2023/01/31 08:28:52;;;;;;;7.80;3.43;;;;;;;3.06;99.82;99098.13;5054246;28;20227;-71
2023/01/31 08:31:27;;;;;;;8.27;2.90;;;;;;;3.16;99.40;99098.94;5054208;28;20287;-73
2023/01/31 08:33:53;;;;;;;9.33;2.87;;;;;;;3.28;97.83;99100.38;5054065;28;20196;-73
2023/01/31 08:36:25;;;;;;;8.23;2.93;;;;;;;3.42;96.67;99105.13;5054547;28;20209;-73
2023/01/31 08:38:52;;;;;;;10.97;2.90;;;;;;;3.46;95.05;99103.84;5054581;28;20201;-73
2023/01/31 08:41:19;;;;;;;7.37;3.23;;;;;;;3.46;95.30;99091.53;5054024;28;20213;-73
2023/01/31 08:43:47;;;;;;;8.13;2.90;;;;;;;3.46;94.49;99090.69;5053994;28;20225;-73
2023/01/31 08:46:14;;;;;;;7.00;2.87;;;;;;;3.56;93.66;99099.34;5054229;28;20755;-73
2023/01/31 08:48:41;;;;;;;9.60;2.97;;;;;;;3.46;92.84;99098.59;5054519;28;20209;-73
2023/01/31 08:51:11;;;;;;;7.37;3.00;;;;;;;3.53;94.81;99095.22;5053918;28;20205;-73
2023/01/31 08:53:39;;;;;;;6.63;2.77;;;;;;;3.53;92.99;99097.84;5053967;28;20640;-71
2023/01/31 08:56:07;;;;;;;9.33;2.93;;;;;;;3.52;92.45;99090.94;5053558;28;20216;-71
2023/01/31 08:58:35;;;;;;;7.87;2.73;;;;;;;3.49;92.39;99091.25;5054084;28;20216;-70
2023/01/31 09:01:06;;;;;;;10.37;3.10;;;;;;;3.55;92.52;99088.00;5053743;28;20205;-71
2023/01/31 09:03:33;;;;;;;8.00;2.70;;;;;;;3.70;92.48;99090.97;5054094;28;20213;-71
2023/01/31 09:06:05;;;;;;;6.83;2.70;;;;;;;3.68;91.91;99090.25;5054012;28;20228;-71
2023/01/31 09:08:32;;;;;;;8.30;3.00;;;;;;;3.71;91.02;99095.22;5053755;28;20687;-71
2023/01/31 09:10:59;;;;;;;7.60;2.77;;;;;;;3.72;91.67;99095.09;5053562;28;20678;-71
2023/01/31 09:13:26;;;;;;;7.60;2.97;;;;;;;3.69;92.15;99105.06;5053215;28;20295;-71
2023/01/31 09:16:10;;;;;;;8.57;3.17;;;;;;;3.77;92.45;99110.41;5053511;28;20694;-71
2023/01/31 09:18:39;;;;;;;9.03;2.87;;;;;;;3.80;91.36;99105.66;5053806;28;20190;-71
2023/01/31 09:21:08;;;;;;;10.33;2.80;;;;;;;3.87;91.70;99100.63;5053407;28;20212;-71
2023/01/31 09:23:35;;;;;;;8.87;2.70;;;;;;;3.99;90.96;99102.03;5052953;28;20229;-71
2023/01/31 09:26:01;;;;;;;6.43;3.40;;;;;;;4.21;90.00;99106.81;5053053;28;20220;-71
2023/01/31 09:28:28;;;;;;;12.10;3.17;;;;;;;4.33;90.06;99105.56;5053046;28;20212;-71
2023/01/31 09:30:54;;;;;;;5.43;3.13;;;;;;;4.28;89.18;99098.16;5053592;28;20216;-74
2023/01/31 09:33:22;;;;;;;6.63;3.03;;;;;;;4.26;88.31;99097.50;5054050;28;20221;-71
2023/01/31 09:36:04;;;;;;;6.07;3.20;;;;;;;4.36;90.26;99090.31;5053360;28;20212;-71
2023/01/31 09:38:30;;;;;;;8.77;3.37;;;;;;;4.39;88.37;99089.19;5053961;28;20211;-71
2023/01/31 09:41:01;;;;;;;5.63;2.93;;;;;;;4.44;87.98;99084.28;5053516;28;20213;-71
2023/01/31 09:43:32;;;;;;;8.00;3.27;;;;;;;4.40;87.49;99089.03;5052828;28;20628;-71
2023/01/31 09:46:03;;;;;;;9.13;3.60;;;;;;;4.41;89.93;99093.31;5053161;28;20551;-73
2023/01/31 09:48:34;;;;;;;9.47;3.23;;;;;;;4.39;87.79;99090.00;5053155;28;20189;-73
2023/01/31 09:51:02;;;;;;;9.27;3.53;;;;;;;4.57;87.35;99089.94;5053908;28;20281;-73
2023/01/31 09:53:32;;;;;;;8.43;3.37;;;;;;;4.53;87.16;99091.25;5053341;28;20207;-73
2023/01/31 09:56:34;;;;;;;9.50;3.00;;;;;;;4.60;87.33;99087.81;5053126;28;20201;-73
2023/01/31 09:59:25;;;;;;;7.57;3.00;;;;;;;4.64;86.67;99093.59;5047986;28;20208;-71
2023/01/31 10:02:23;;;;;;;8.93;3.23;;;;;;;4.67;87.30;99083.59;5053353;28;20230;-73
2023/01/31 10:05:10;;;;;;;13.17;3.60;;;;;;;4.65;85.98;99105.81;5053010;28;20200;-71
2023/01/31 10:07:49;;;;;;;8.97;3.23;;;;;;;4.59;85.89;99101.97;5052011;28;20200;-73
2023/01/31 10:10:33;;;;;;;10.80;3.13;;;;;;;4.64;85.61;99109.41;5052833;28;20501;-71
2023/01/31 10:13:05;;;;;;;10.70;3.60;;;;;;;4.64;86.37;99104.13;5052768;28;20228;-71
2023/01/31 10:15:40;;;;;;;9.80;2.70;;;;;;;4.70;84.89;99103.53;5052927;28;20219;-71
2023/01/31 10:18:20;;;;;;;8.73;2.77;;;;;;;4.72;84.67;99105.03;5052602;28;20196;-71
2023/01/31 10:20:54;;;;;;;9.23;2.80;;;;;;;4.72;85.30;99106.81;5052576;28;20555;-70
2023/01/31 10:23:50;;;;;;;9.70;2.97;;;;;;;4.66;85.06;99097.72;5052321;28;20235;-71
2023/01/31 10:26:25;;;;;;;7.60;2.83;;;;;;;4.67;85.08;99094.13;5048015;28;20213;-71
2023/01/31 10:29:04;;;;;;;6.90;2.73;;;;;;;4.54;85.54;99103.41;5052634;28;20196;-71
2023/01/31 10:31:36;;;;;;;6.07;2.57;;;;;;;4.54;86.03;99092.88;5052766;28;20225;-71
2023/01/31 10:34:40;;;;;;;7.93;2.70;;;;;;;4.78;84.89;99095.63;5052977;28;20211;-71
2023/01/31 10:37:30;;;;;;;6.57;2.70;;;;;;;4.82;84.85;99095.19;5052975;28;20594;-71
2023/01/31 10:40:22;;;;;;;7.70;2.57;;;;;;;4.90;84.58;99082.06;5052728;28;20286;-71
2023/01/31 10:42:55;;;;;;;7.80;2.83;;;;;;;5.09;83.21;99089.69;5053224;28;20260;-71
2023/01/31 10:45:28;;;;;;;7.80;2.60;;;;;;;5.12;82.76;99093.84;5052786;28;20198;-71
2023/01/31 10:48:00;;;;;;;8.70;2.87;;;;;;;5.02;82.18;99091.31;5052801;28;20189;-71
2023/01/31 10:50:40;;;;;;;10.07;2.97;;;;;;;5.12;83.21;99085.91;5053051;28;20686;-72
2023/01/31 10:53:37;;;;;;;6.03;2.10;;;;;;;5.18;81.96;99082.63;5052801;28;20225;-71
2023/01/31 10:56:10;;;;;;;6.50;2.60;;;;;;;5.40;81.67;99082.03;5052443;28;20650;-71
2023/01/31 10:58:38;;;;;;;6.20;2.07;;;;;;;5.35;81.44;99089.63;5052399;28;20243;-71
2023/01/31 11:01:07;;;;;;;8.40;2.30;;;;;;;5.13;82.69;99084.94;5052424;28;20559;-71
2023/01/31 11:03:34;;;;;;;7.00;2.80;;;;;;;5.20;83.37;99084.13;5051128;28;20226;-71
2023/01/31 11:06:00;;;;;;;8.03;2.60;;;;;;;5.03;81.92;99076.34;5052380;28;20228;-71
2023/01/31 11:08:50;;;;;;;11.27;2.80;;;;;;;5.15;82.25;99081.16;5052483;28;20202;-72
2023/01/31 11:11:22;;;;;;;9.63;2.70;;;;;;;5.24;82.31;99074.09;5052369;28;20197;-71
2023/01/31 11:14:17;;;;;;;6.17;2.20;;;;;;;5.35;82.51;99061.44;5052056;28;20216;-71
2023/01/31 11:16:44;;;;;;;8.60;2.60;;;;;;;5.08;81.81;99066.13;5052264;28;20194;-71
2023/01/31 11:19:23;;;;;;;8.10;3.00;;;;;;;5.19;83.01;99048.22;5054523;28;20212;-71
2023/01/31 11:21:54;;;;;;;7.83;2.23;;;;;;;5.15;82.78;99051.34;5056019;28;20231;-71
2023/01/31 11:24:24;;;;;;;6.10;2.07;;;;;;;5.19;82.63;99048.22;5055847;28;20229;-71
2023/01/31 11:26:59;;;;;;;10.80;2.90;;;;;;;5.11;83.52;99047.38;5055752;28;20212;-71
2023/01/31 11:29:29;;;;;;;6.53;2.30;;;;;;;5.07;84.38;99053.94;5055240;28;20189;-71
2023/01/31 11:31:58;;;;;;;9.00;2.97;;;;;;;5.04;84.17;99049.00;5055032;28;20229;-71
2023/01/31 11:34:30;;;;;;;6.70;2.27;;;;;;;5.16;84.39;99022.16;5053717;28;20638;-71
2023/01/31 11:37:13;;;;;;;7.30;2.93;;;;;;;5.40;82.96;99018.75;5055476;28;20327;-72
2023/01/31 11:39:40;;;;;;;6.30;2.23;;;;;;;5.41;82.11;99004.56;5055062;28;20662;-72
2023/01/31 11:42:15;;;;;;;16.40;3.03;;;;;;;5.42;83.44;99003.63;5055356;28;20314;-72
2023/01/31 11:45:16;;;;;;;6.67;2.53;;;;;;;5.47;81.93;99001.31;5055511;28;20212;-72
2023/01/31 11:47:48;;;;;;;7.13;2.60;;;;;;;5.64;81.35;99005.56;5055754;28;20271;-71
2023/01/31 11:50:44;;;;;;;6.43;2.87;;;;;;;5.70;81.01;99010.22;5055394;28;20212;-71
2023/01/31 11:53:39;;;;;;;4.87;2.80;;;;;;;5.79;80.43;99001.31;5052121;28;20236;-71
2023/01/31 11:56:22;;;;;;;6.80;2.30;;;;;;;5.55;80.23;99009.19;5053978;28;20300;-71